Time;durP1;ratioP1;P1;durP2;ratioP2;P2;SDS_P1;SDS_P2;PMS_P1;PMS_P2;Temp;Humidity;BMP_temperature;BMP_pressure;BME280_temperature;BME280_humidity;BME280_pressure;Samples;Min_cycle;Max_cycle;Signal;HPM_P1;HPM_P2
2023/03/19 00:00:09;;;;;;;3.15;1.85;;;;;;;12.24;80.34;100813.44;3609978;39;20054;-71
2023/03/19 00:02:35;;;;;;;2.05;1.50;;;;;;;12.24;80.06;100813.44;3607661;39;20059;-71
2023/03/19 00:05:03;;;;;;;2.35;1.58;;;;;;;12.21;80.26;100810.97;3608443;39;20625;-71
2023/03/19 00:07:29;;;;;;;1.52;1.38;;;;;;;12.26;80.08;100814.19;3615074;39;20125;-71
2023/03/19 00:09:55;;;;;;;2.58;1.45;;;;;;;12.07;80.33;100789.47;3608255;39;20055;-70
2023/03/19 00:12:20;;;;;;;2.65;1.30;;;;;;;12.20;80.13;100806.50;3610929;39;20051;-69
2023/03/19 00:14:46;;;;;;;2.35;1.60;;;;;;;12.24;80.73;100813.44;3610006;39;20079;-70
2023/03/19 00:17:12;;;;;;;2.42;1.50;;;;;;;12.21;80.74;100819.03;3608539;39;20066;-70
2023/03/19 00:19:38;;;;;;;2.45;1.60;;;;;;;12.20;80.94;100814.59;3597611;39;20053;-70
2023/03/19 00:22:03;;;;;;;2.88;1.77;;;;;;;12.20;80.50;100827.22;3609959;39;20078;-70
2023/03/19 00:24:29;;;;;;;2.38;1.73;;;;;;;12.17;80.63;100827.44;3615774;39;20061;-70
2023/03/19 00:26:55;;;;;;;2.63;1.90;;;;;;;12.15;80.69;100816.75;3609338;39;20094;-69
2023/03/19 00:29:21;;;;;;;3.90;1.92;;;;;;;12.11;80.45;100817.91;3607721;39;20059;-70
2023/03/19 00:31:48;;;;;;;2.78;1.90;;;;;;;12.15;81.50;100841.03;3610330;39;20050;-70
2023/03/19 00:34:17;;;;;;;4.30;1.65;;;;;;;12.14;81.32;100828.50;3601496;39;20059;-69
2023/03/19 00:36:43;;;;;;;4.10;1.98;;;;;;;12.13;80.96;100836.69;3613602;39;20090;-70
2023/03/19 00:39:09;;;;;;;3.17;1.92;;;;;;;12.13;81.08;100834.84;3612382;39;21366;-71
2023/03/19 00:41:35;;;;;;;3.17;1.80;;;;;;;12.15;81.15;100837.47;3611281;39;20051;-69
2023/03/19 00:44:00;;;;;;;2.63;1.60;;;;;;;12.15;80.83;100829.38;3609734;39;20408;-69
2023/03/19 00:46:26;;;;;;;3.22;1.85;;;;;;;12.13;81.28;100826.78;3609862;39;20059;-70
2023/03/19 00:48:54;;;;;;;2.40;1.90;;;;;;;12.14;81.42;100828.50;3609490;39;20051;-70
2023/03/19 00:51:22;;;;;;;3.00;1.90;;;;;;;12.11;81.31;100828.69;3608623;39;20050;-70
2023/03/19 00:53:48;;;;;;;1.85;1.75;;;;;;;12.12;81.50;100832.28;3611107;39;20050;-70
2023/03/19 00:56:18;;;;;;;2.28;2.08;;;;;;;12.09;81.48;100836.03;3609899;39;20382;-70
2023/03/19 00:58:44;;;;;;;3.10;2.20;;;;;;;12.09;81.36;100836.03;3607286;39;20062;-70
2023/03/19 01:01:15;;;;;;;2.28;2.00;;;;;;;12.07;82.02;100837.97;3606870;39;20541;-70
2023/03/19 01:03:40;;;;;;;3.88;2.25;;;;;;;12.07;82.34;100835.28;3610586;39;20051;-71
2023/03/19 01:06:06;;;;;;;4.13;2.28;;;;;;;12.06;81.61;100838.94;3609014;39;20061;-70
2023/03/19 01:08:32;;;;;;;3.08;2.33;;;;;;;12.05;81.44;100834.50;3609699;39;20340;-69
2023/03/19 01:11:13;;;;;;;3.13;2.10;;;;;;;12.02;82.08;100830.22;3608953;39;20106;-69
2023/03/19 01:13:40;;;;;;;2.22;2.03;;;;;;;12.00;81.67;100833.97;3610195;39;20333;-69
2023/03/19 01:16:06;;;;;;;2.42;2.13;;;;;;;11.98;81.91;100830.50;3608990;39;22019;-69
2023/03/19 01:18:32;;;;;;;3.35;2.17;;;;;;;11.99;81.54;100832.25;3609614;39;20055;-69
2023/03/19 01:20:58;;;;;;;3.22;2.50;;;;;;;11.99;82.03;100841.19;3609390;39;20357;-70
2023/03/19 01:23:24;;;;;;;2.95;2.30;;;;;;;11.95;82.04;100833.41;3610279;39;20067;-69
2023/03/19 01:25:50;;;;;;;3.05;2.28;;;;;;;12.00;81.60;100833.97;3609306;39;20285;-69
2023/03/19 01:28:16;;;;;;;3.13;2.22;;;;;;;12.00;81.71;100831.28;3609505;39;20066;-69
2023/03/19 01:30:42;;;;;;;4.28;2.20;;;;;;;12.01;82.37;100833.00;3609761;39;20054;-69
2023/03/19 01:33:07;;;;;;;2.85;2.50;;;;;;;12.01;81.62;100835.69;3610348;39;20069;-69
2023/03/19 01:35:33;;;;;;;3.20;2.28;;;;;;;12.02;81.88;100837.41;3609152;39;20054;-69
2023/03/19 01:37:58;;;;;;;2.72;2.20;;;;;;;12.02;82.04;100830.22;3608488;39;20058;-70
2023/03/19 01:40:24;;;;;;;2.80;2.60;;;;;;;12.02;81.82;100830.22;3607584;39;20321;-69
2023/03/19 01:43:14;;;;;;;2.95;2.47;;;;;;;12.05;81.71;100829.13;3608427;39;20051;-69
2023/03/19 01:45:42;;;;;;;3.65;2.47;;;;;;;12.04;81.49;100827.41;3607757;39;20046;-70
2023/03/19 01:48:44;;;;;;;3.53;2.50;;;;;;;12.03;81.43;100833.75;3607224;39;20351;-70
2023/03/19 01:51:16;;;;;;;4.40;2.65;;;;;;;12.00;81.60;100824.06;3583383;39;20300;-69
2023/03/19 01:53:51;;;;;;;5.05;2.30;;;;;;;12.04;81.69;100832.78;3609073;39;20051;-70
2023/03/19 01:56:25;;;;;;;3.40;2.47;;;;;;;12.05;81.12;100837.19;3609818;39;20059;-70
2023/03/19 01:58:57;;;;;;;3.35;2.65;;;;;;;12.05;82.09;100835.41;3609252;39;20259;-70
2023/03/19 02:01:25;;;;;;;3.28;2.45;;;;;;;11.80;81.19;100787.66;3606919;39;20068;-70
2023/03/19 02:03:52;;;;;;;3.33;2.55;;;;;;;12.04;81.90;100835.47;3607649;39;20051;-70
2023/03/19 02:06:20;;;;;;;3.92;3.10;;;;;;;12.05;81.29;100829.13;3606537;39;20047;-70
2023/03/19 02:08:50;;;;;;;3.53;2.60;;;;;;;12.05;81.66;100839.91;3607452;39;20244;-70
2023/03/19 02:11:17;;;;;;;3.80;2.60;;;;;;;12.04;82.09;100828.25;3609437;39;20052;-70
2023/03/19 02:13:44;;;;;;;4.28;2.67;;;;;;;11.96;82.54;100829.75;3607567;39;20054;-70
2023/03/19 02:16:10;;;;;;;5.05;3.17;;;;;;;12.00;82.21;100839.38;3608281;39;20066;-70
2023/03/19 02:18:36;;;;;;;2.80;2.60;;;;;;;11.77;82.20;100793.25;3607444;39;20046;-71
2023/03/19 02:21:13;;;;;;;3.67;2.85;;;;;;;11.99;82.50;100829.56;3607832;39;20442;-70
2023/03/19 02:23:58;;;;;;;3.70;3.28;;;;;;;11.97;83.04;100832.34;3606870;39;20062;-69
2023/03/19 02:26:28;;;;;;;4.03;2.92;;;;;;;11.74;82.92;100804.25;3608355;39;20366;-70
2023/03/19 02:28:54;;;;;;;3.85;3.45;;;;;;;11.97;82.35;100834.19;3608330;39;20058;-69
2023/03/19 02:31:21;;;;;;;3.83;3.15;;;;;;;11.98;82.41;100843.97;3608942;39;20062;-69
2023/03/19 02:34:05;;;;;;;4.25;3.22;;;;;;;11.98;83.00;100842.13;3609379;39;20532;-70
2023/03/19 02:36:50;;;;;;;5.03;3.20;;;;;;;11.98;82.42;100835.91;3610783;39;20047;-69
2023/03/19 02:39:39;;;;;;;5.20;3.45;;;;;;;11.89;82.71;100818.50;3611140;39;20046;-69
2023/03/19 02:42:05;;;;;;;3.25;2.95;;;;;;;11.98;82.33;100838.59;3609283;39;20829;-69
2023/03/19 02:44:31;;;;;;;3.80;3.38;;;;;;;11.98;82.20;100843.97;3609708;39;20336;-70
2023/03/19 02:46:56;;;;;;;4.38;3.70;;;;;;;11.96;82.39;100844.09;3609485;39;20084;-70
2023/03/19 02:49:22;;;;;;;4.35;3.70;;;;;;;11.95;82.76;100841.50;3611920;39;20058;-70
2023/03/19 02:51:48;;;;;;;5.97;4.07;;;;;;;11.92;83.12;100841.69;3607706;39;20055;-69
2023/03/19 02:54:14;;;;;;;6.63;4.20;;;;;;;11.93;83.31;100846.13;3608801;39;20116;-69
2023/03/19 02:56:40;;;;;;;4.75;3.70;;;;;;;11.81;83.06;100824.41;3613760;39;20051;-69
2023/03/19 02:59:06;;;;;;;5.45;3.95;;;;;;;11.97;82.90;100850.34;3607593;39;20143;-69
2023/03/19 03:01:31;;;;;;;4.20;3.80;;;;;;;11.92;83.17;100839.00;3599237;39;20419;-69
2023/03/19 03:03:57;;;;;;;4.13;3.60;;;;;;;11.92;82.67;100839.84;3612444;39;20055;-69
2023/03/19 03:06:23;;;;;;;4.53;4.13;;;;;;;11.99;82.27;100845.72;3610201;39;20051;-69
2023/03/19 03:08:48;;;;;;;5.22;3.78;;;;;;;12.01;82.47;100854.53;3610312;39;20292;-69
2023/03/19 03:11:14;;;;;;;4.80;3.90;;;;;;;12.03;82.44;100853.47;3610325;39;20390;-69
2023/03/19 03:13:39;;;;;;;7.13;4.40;;;;;;;12.04;82.13;100854.34;3610105;39;20059;-69
2023/03/19 03:16:05;;;;;;;5.35;4.10;;;;;;;12.05;82.77;100853.38;3609789;39;20341;-69
2023/03/19 03:18:31;;;;;;;4.65;4.05;;;;;;;12.03;82.55;100853.47;3598916;39;20043;-69
2023/03/19 03:20:57;;;;;;;4.40;3.92;;;;;;;12.02;82.92;100845.47;3608364;39;20316;-69
2023/03/19 03:23:22;;;;;;;6.03;4.05;;;;;;;11.98;82.60;100838.59;3609749;39;20047;-69
2023/03/19 03:25:51;;;;;;;5.25;4.07;;;;;;;12.01;82.73;100849.16;3608021;39;20062;-69
2023/03/19 03:28:18;;;;;;;5.68;4.25;;;;;;;12.00;82.55;100852.84;3611276;39;20061;-69
2023/03/19 03:30:45;;;;;;;6.68;4.30;;;;;;;11.92;82.71;100833.63;3613999;39;20050;-68
2023/03/19 03:33:11;;;;;;;4.65;4.18;;;;;;;11.96;82.79;100860.25;3612566;39;20062;-69
2023/03/19 03:35:38;;;;;;;4.85;3.97;;;;;;;11.94;82.88;100853.25;3610667;39;20370;-69
2023/03/19 03:38:03;;;;;;;5.35;4.38;;;;;;;11.83;82.42;100840.47;3612739;39;20389;-68
2023/03/19 03:40:29;;;;;;;5.20;4.25;;;;;;;11.87;82.14;100846.53;3611730;39;20058;-69
2023/03/19 03:42:56;;;;;;;5.82;3.90;;;;;;;11.81;83.26;100848.63;3612017;39;20055;-69
2023/03/19 03:45:21;;;;;;;6.45;4.38;;;;;;;11.75;82.81;100849.03;3611743;39;22027;-68
2023/03/19 03:47:47;;;;;;;9.90;4.88;;;;;;;11.65;83.19;100847.94;3610373;39;20051;-68
2023/03/19 03:50:13;;;;;;;4.70;4.25;;;;;;;11.65;83.43;100860.53;3608891;39;20083;-69
2023/03/19 03:52:39;;;;;;;5.95;4.85;;;;;;;11.57;83.31;100869.97;3606436;39;20303;-69
2023/03/19 03:55:06;;;;;;;5.35;4.63;;;;;;;11.53;83.63;100862.19;3609464;39;20494;-68
2023/03/19 03:57:32;;;;;;;5.85;4.80;;;;;;;11.30;83.44;100843.03;3609247;39;20051;-69
2023/03/19 03:59:58;;;;;;;4.97;4.45;;;;;;;11.39;83.72;100869.34;3608001;39;20061;-69
2023/03/19 04:02:24;;;;;;;5.97;4.90;;;;;;;11.33;83.62;100869.75;3612161;39;20275;-69
2023/03/19 04:04:50;;;;;;;4.88;4.47;;;;;;;11.32;83.50;100869.81;3611517;39;20107;-70
2023/03/19 04:07:16;;;;;;;4.63;4.18;;;;;;;11.20;83.84;100862.56;3599155;39;20133;-69
2023/03/19 04:09:42;;;;;;;7.13;4.90;;;;;;;11.18;83.60;100870.72;3611368;39;20094;-69
2023/03/19 04:12:08;;;;;;;6.45;5.13;;;;;;;10.94;84.30;100830.09;3612096;39;20054;-69
2023/03/19 04:14:34;;;;;;;6.68;5.32;;;;;;;11.09;84.25;100860.53;3609986;39;20058;-69
2023/03/19 04:17:00;;;;;;;6.18;4.85;;;;;;;11.05;85.35;100856.31;3606568;39;20115;-69
2023/03/19 04:19:26;;;;;;;5.63;5.13;;;;;;;11.03;85.38;100860.91;3596610;39;20047;-70
2023/03/19 04:21:51;;;;;;;6.30;4.93;;;;;;;10.83;85.22;100837.97;3604471;39;20058;-69
2023/03/19 04:24:17;;;;;;;6.55;5.30;;;;;;;10.91;85.15;100876.88;3603519;39;20062;-69
2023/03/19 04:26:42;;;;;;;6.18;5.20;;;;;;;10.88;84.92;100874.38;3614160;39;20404;-69
2023/03/19 04:29:08;;;;;;;6.28;4.93;;;;;;;10.85;85.13;100874.56;3612882;39;20067;-69
2023/03/19 04:31:34;;;;;;;5.97;5.38;;;;;;;10.81;85.53;100872.16;3610789;39;20061;-68
2023/03/19 04:33:59;;;;;;;5.53;5.07;;;;;;;10.76;85.84;100864.38;3602334;39;20067;-69
2023/03/19 04:36:25;;;;;;;5.78;5.05;;;;;;;10.73;85.84;100861.88;3611169;39;20046;-69
2023/03/19 04:38:51;;;;;;;7.07;5.45;;;;;;;10.69;86.08;100868.44;3611316;39;20396;-69
2023/03/19 04:41:17;;;;;;;6.72;5.55;;;;;;;10.67;85.30;100859.56;3607941;39;20108;-69
2023/03/19 04:43:42;;;;;;;8.15;5.75;;;;;;;10.63;86.33;100866.09;3611883;39;20050;-69
2023/03/19 04:46:08;;;;;;;8.00;5.47;;;;;;;10.62;86.46;100872.44;3609687;39;20180;-69
2023/03/19 04:48:34;;;;;;;7.20;5.95;;;;;;;10.59;86.28;100867.22;3610451;39;20139;-69
2023/03/19 04:51:02;;;;;;;6.22;5.60;;;;;;;10.57;86.29;100863.78;3607436;39;20095;-69
2023/03/19 04:53:28;;;;;;;6.70;6.00;;;;;;;10.53;86.26;100871.19;3608028;39;20360;-69
2023/03/19 04:55:55;;;;;;;7.22;6.53;;;;;;;10.50;85.78;100878.53;3607132;39;20047;-69
2023/03/19 04:58:21;;;;;;;8.40;5.80;;;;;;;10.44;85.62;100883.34;3607746;39;20412;-69
2023/03/19 05:00:48;;;;;;;8.27;6.03;;;;;;;10.07;86.03;100828.25;3608593;39;20051;-69
2023/03/19 05:03:14;;;;;;;8.40;6.07;;;;;;;10.40;85.94;100892.56;3610143;39;20051;-69
2023/03/19 05:05:40;;;;;;;9.75;6.38;;;;;;;10.35;86.16;100891.97;3607345;39;20046;-70
2023/03/19 05:08:08;;;;;;;8.95;6.28;;;;;;;10.35;86.90;100900.03;3603808;39;20395;-68
2023/03/19 05:10:36;;;;;;;10.23;6.72;;;;;;;10.30;86.93;100896.72;3603619;39;20070;-68
2023/03/19 05:13:02;;;;;;;8.52;6.78;;;;;;;10.33;87.12;100906.44;3610033;39;20390;-68
2023/03/19 05:15:28;;;;;;;7.82;7.05;;;;;;;10.30;86.82;100902.09;3607779;39;20055;-68
2023/03/19 05:17:54;;;;;;;7.80;6.68;;;;;;;9.79;87.16;100823.63;3611216;39;20411;-68
2023/03/19 05:20:20;;;;;;;7.85;6.75;;;;;;;10.27;86.49;100902.28;3606268;39;20050;-68
2023/03/19 05:22:45;;;;;;;7.90;7.15;;;;;;;10.20;86.55;100895.53;3609702;39;20081;-69
2023/03/19 05:25:12;;;;;;;8.85;7.03;;;;;;;10.22;86.14;100907.06;3609177;39;20050;-69
2023/03/19 05:27:38;;;;;;;9.25;7.28;;;;;;;10.17;85.63;100911.81;3608145;39;20058;-69
2023/03/19 05:30:05;;;;;;;9.18;6.97;;;;;;;10.08;86.02;100901.63;3606772;39;21914;-69
2023/03/19 05:32:31;;;;;;;12.60;6.75;;;;;;;10.09;86.27;100908.75;3605292;39;20575;-67
2023/03/19 05:34:57;;;;;;;7.40;6.68;;;;;;;10.06;86.15;100907.09;3607375;39;20043;-67
2023/03/19 05:37:23;;;;;;;11.85;7.50;;;;;;;10.03;85.89;100917.16;3608938;39;20050;-67
2023/03/19 05:39:50;;;;;;;8.18;6.85;;;;;;;10.00;86.52;100916.38;3610146;39;20078;-67
2023/03/19 05:42:16;;;;;;;8.60;7.47;;;;;;;9.98;86.55;100920.09;3608145;39;20051;-67
2023/03/19 05:44:42;;;;;;;9.43;7.20;;;;;;;9.94;85.71;100916.72;3609628;39;20066;-67
2023/03/19 05:47:11;;;;;;;9.00;7.18;;;;;;;9.92;85.45;100920.44;3610584;39;20066;-67
2023/03/19 05:49:36;;;;;;;7.60;6.80;;;;;;;9.60;84.88;100873.97;3585136;39;20058;-67
2023/03/19 05:52:02;;;;;;;7.80;7.07;;;;;;;9.87;86.26;100927.91;3616808;39;20062;-66
2023/03/19 05:54:28;;;;;;;9.02;7.28;;;;;;;9.85;85.58;100924.44;3612951;39;20423;-67
2023/03/19 05:56:54;;;;;;;10.02;6.95;;;;;;;9.86;86.11;100931.53;3609935;39;20269;-67
2023/03/19 05:59:20;;;;;;;9.52;7.45;;;;;;;9.86;86.19;100926.16;3613245;39;20265;-68
2023/03/19 06:01:46;;;;;;;7.93;7.13;;;;;;;9.88;86.39;100930.50;3614595;39;20116;-68
2023/03/19 06:04:11;;;;;;;9.63;7.65;;;;;;;9.81;86.34;100918.38;3611741;39;20051;-70
2023/03/19 06:06:37;;;;;;;10.07;7.97;;;;;;;9.92;86.82;100932.03;3610993;39;20057;-69
2023/03/19 06:09:03;;;;;;;9.82;8.45;;;;;;;9.94;86.89;100934.66;3610809;39;20054;-69
2023/03/19 06:11:28;;;;;;;11.07;8.35;;;;;;;9.98;87.84;100937.06;3610501;39;20031;-70
2023/03/19 06:13:54;;;;;;;12.60;8.65;;;;;;;10.01;87.74;100946.75;3608130;39;20381;-69
2023/03/19 06:16:20;;;;;;;9.38;8.38;;;;;;;10.02;86.84;100948.50;3612605;39;20050;-69
2023/03/19 06:18:46;;;;;;;9.35;8.00;;;;;;;10.03;86.76;100947.56;3605295;39;20133;-69
2023/03/19 06:21:12;;;;;;;11.60;8.95;;;;;;;10.05;87.46;100947.44;3609161;39;20047;-70
2023/03/19 06:23:37;;;;;;;12.60;9.85;;;;;;;10.10;87.39;100956.97;3614916;39;20065;-69
2023/03/19 06:26:04;;;;;;;14.25;9.38;;;;;;;10.12;88.49;100952.41;3611698;39;20051;-69
2023/03/19 06:28:31;;;;;;;10.70;9.43;;;;;;;10.22;88.23;100966.16;3611913;39;20095;-70
2023/03/19 06:30:57;;;;;;;14.45;10.82;;;;;;;10.23;88.77;100966.06;3614693;39;20047;-69
2023/03/19 06:33:26;;;;;;;13.77;10.73;;;;;;;10.30;89.78;100963.03;3610418;39;20055;-69
2023/03/19 06:35:52;;;;;;;12.68;10.98;;;;;;;10.30;89.24;100963.91;3612586;39;20072;-69
2023/03/19 06:38:18;;;;;;;14.50;10.90;;;;;;;10.35;89.53;100972.56;3615108;39;20055;-70
2023/03/19 06:40:43;;;;;;;12.98;10.80;;;;;;;10.37;89.47;100970.69;3613314;39;20047;-69
2023/03/19 06:43:09;;;;;;;13.25;10.80;;;;;;;10.39;89.51;100967.88;3611425;39;20043;-69
2023/03/19 06:45:35;;;;;;;12.20;10.27;;;;;;;10.40;89.66;100964.22;3612197;39;20136;-69
2023/03/19 06:48:01;;;;;;;14.68;10.55;;;;;;;10.43;88.79;100973.00;3609794;39;20055;-69
2023/03/19 06:50:26;;;;;;;13.88;11.23;;;;;;;10.33;89.42;100958.34;3610733;39;20046;-68
2023/03/19 06:52:52;;;;;;;13.88;11.00;;;;;;;10.51;88.96;100987.81;3600000;39;20320;-69
2023/03/19 06:55:19;;;;;;;13.40;11.27;;;;;;;10.27;88.87;100931.84;3610728;39;20051;-69
2023/03/19 06:57:49;;;;;;;14.80;10.98;;;;;;;10.40;88.78;100949.00;3612488;39;20043;-69
2023/03/19 07:00:17;;;;;;;14.68;12.02;;;;;;;10.67;90.14;100972.50;3612012;39;20082;-69
2023/03/19 07:02:42;;;;;;;14.77;11.50;;;;;;;10.83;89.94;100984.06;3609674;39;20152;-69
2023/03/19 07:05:08;;;;;;;13.95;11.55;;;;;;;10.99;89.35;100989.38;3612223;39;20408;-68
2023/03/19 07:07:34;;;;;;;16.67;12.00;;;;;;;11.07;87.91;100979.00;3601156;39;21347;-69
2023/03/19 07:10:00;;;;;;;16.95;12.23;;;;;;;11.25;87.08;100994.97;3606565;39;20389;-69
2023/03/19 07:12:28;;;;;;;11.93;10.02;;;;;;;11.35;86.71;100994.31;3606806;39;20063;-68
2023/03/19 07:14:55;;;;;;;10.98;9.65;;;;;;;11.34;86.71;100975.56;3609682;39;20367;-69
2023/03/19 07:17:21;;;;;;;11.10;9.77;;;;;;;11.57;86.46;101001.03;3609981;39;20051;-69
2023/03/19 07:19:47;;;;;;;12.98;9.98;;;;;;;11.70;85.71;101007.34;3611493;39;20095;-69
2023/03/19 07:22:13;;;;;;;11.27;9.45;;;;;;;11.73;85.27;100984.75;3607015;39;20050;-69
2023/03/19 07:24:38;;;;;;;13.57;9.25;;;;;;;12.00;84.14;101003.69;3613306;39;20104;-69
2023/03/19 07:27:04;;;;;;;10.80;8.68;;;;;;;12.23;83.31;101015.66;3613335;39;20055;-69
2023/03/19 07:29:30;;;;;;;9.85;8.18;;;;;;;12.41;81.73;101016.28;3610394;39;20110;-69
2023/03/19 07:31:58;;;;;;;9.38;7.97;;;;;;;12.66;81.45;101016.38;3612759;39;20419;-69
2023/03/19 07:34:24;;;;;;;8.52;7.15;;;;;;;12.89;79.58;101036.38;3610123;39;20050;-69
2023/03/19 07:36:50;;;;;;;9.10;7.28;;;;;;;13.10;78.51;101031.38;3613633;39;20325;-69
2023/03/19 07:39:16;;;;;;;7.30;6.30;;;;;;;13.19;76.19;101027.13;3611576;39;20098;-69
2023/03/19 07:41:43;;;;;;;9.68;6.40;;;;;;;13.19;75.22;101022.63;3610794;39;20075;-69
2023/03/19 07:44:10;;;;;;;8.07;6.20;;;;;;;13.08;75.08;101022.50;3612138;39;20336;-68
2023/03/19 07:46:36;;;;;;;8.77;5.95;;;;;;;13.06;75.48;101024.44;3613221;39;20367;-69
2023/03/19 07:49:01;;;;;;;9.95;6.35;;;;;;;13.34;75.22;101030.66;3612061;39;20081;-69
2023/03/19 07:51:27;;;;;;;8.27;6.00;;;;;;;13.63;74.55;101032.13;3609120;39;20059;-69
2023/03/19 07:53:53;;;;;;;9.60;6.20;;;;;;;13.97;73.83;101029.72;3610634;39;20058;-68
2023/03/19 07:56:18;;;;;;;9.52;6.68;;;;;;;14.26;72.39;101037.53;3609927;39;20063;-69
2023/03/19 07:58:44;;;;;;;8.02;5.82;;;;;;;14.48;70.54;101040.34;3609661;39;20526;-68
2023/03/19 08:01:10;;;;;;;9.70;6.38;;;;;;;14.54;69.41;101039.06;3608229;39;20369;-67
2023/03/19 08:03:35;;;;;;;10.00;6.30;;;;;;;14.51;68.98;101039.31;3615318;39;20373;-68
2023/03/19 08:06:02;;;;;;;8.85;6.28;;;;;;;14.45;68.72;101039.72;3609237;39;20074;-68
2023/03/19 08:08:28;;;;;;;9.85;6.22;;;;;;;14.37;69.07;101043.03;3610553;39;20058;-68
2023/03/19 08:10:54;;;;;;;10.25;6.68;;;;;;;14.42;69.35;101046.22;3608725;39;20059;-68
2023/03/19 08:13:19;;;;;;;9.77;6.30;;;;;;;14.36;68.60;101043.97;3609630;39;20143;-68
2023/03/19 08:15:45;;;;;;;7.57;6.50;;;;;;;14.29;69.97;101048.13;3608614;39;20043;-68
2023/03/19 08:18:11;;;;;;;13.48;6.38;;;;;;;14.13;69.34;101051.94;3610547;39;20062;-68
2023/03/19 08:20:36;;;;;;;11.70;6.25;;;;;;;13.91;69.89;101058.03;3612568;39;20097;-68
2023/03/19 08:23:03;;;;;;;12.73;7.07;;;;;;;13.60;69.73;101063.91;3600158;39;20075;-68
2023/03/19 08:25:31;;;;;;;13.90;7.32;;;;;;;13.42;70.34;101066.09;3613588;39;20432;-68
2023/03/19 08:27:58;;;;;;;11.60;7.57;;;;;;;13.29;71.91;101062.50;3614979;39;20085;-68
2023/03/19 08:30:24;;;;;;;13.02;7.03;;;;;;;13.28;71.86;101068.88;3611920;39;20069;-68
2023/03/19 08:32:49;;;;;;;11.20;7.00;;;;;;;13.21;71.69;101069.25;3613512;39;20090;-67
2023/03/19 08:35:16;;;;;;;9.85;6.78;;;;;;;13.20;71.55;101062.13;3607949;39;20059;-68
2023/03/19 08:37:41;;;;;;;15.23;7.43;;;;;;;13.24;72.40;101063.69;3614310;39;20046;-68
2023/03/19 08:40:08;;;;;;;14.70;6.50;;;;;;;13.24;71.29;101063.69;3612659;39;20054;-69
2023/03/19 08:42:34;;;;;;;16.90;6.88;;;;;;;13.39;71.59;101074.41;3610556;39;20059;-69
2023/03/19 08:45:00;;;;;;;11.65;6.72;;;;;;;13.54;70.54;101065.22;3613085;39;20408;-69
2023/03/19 08:47:26;;;;;;;13.15;6.78;;;;;;;13.83;70.43;101071.25;3610915;39;20382;-69
2023/03/19 08:49:52;;;;;;;12.25;6.35;;;;;;;13.77;69.58;101058.19;3610759;39;20502;-69
2023/03/19 08:52:19;;;;;;;12.82;7.07;;;;;;;13.86;69.80;101086.38;3607479;39;20054;-70
2023/03/19 08:54:45;;;;;;;13.57;6.57;;;;;;;13.66;68.73;101080.53;3611396;39;20050;-69
2023/03/19 08:57:10;;;;;;;13.90;6.75;;;;;;;13.68;69.10;101092.13;3610781;39;20099;-69
2023/03/19 08:59:36;;;;;;;10.68;5.47;;;;;;;13.74;69.45;101087.25;3608697;39;20050;-69
2023/03/19 09:02:02;;;;;;;12.57;6.00;;;;;;;13.73;69.12;101090.91;3611743;39;20066;-69
2023/03/19 09:04:28;;;;;;;12.48;6.18;;;;;;;13.68;69.66;101093.97;3610098;39;20452;-69
2023/03/19 09:06:54;;;;;;;10.98;5.50;;;;;;;13.67;69.18;101093.09;3610824;39;20298;-69
2023/03/19 09:09:22;;;;;;;11.52;4.90;;;;;;;13.58;68.89;101093.75;3607933;39;20090;-68
2023/03/19 09:11:48;;;;;;;13.25;4.57;;;;;;;13.59;68.81;101106.28;3608612;39;20075;-68
2023/03/19 09:14:16;;;;;;;11.63;4.53;;;;;;;13.65;68.63;101100.44;3614391;39;20054;-68
2023/03/19 09:16:42;;;;;;;12.20;4.60;;;;;;;13.70;68.72;101103.69;3611208;39;20055;-68
2023/03/19 09:19:08;;;;;;;13.88;5.10;;;;;;;13.83;67.79;101111.78;3610907;39;20066;-70
2023/03/19 09:21:35;;;;;;;14.18;4.80;;;;;;;14.00;66.65;101107.03;3607804;39;20452;-69
2023/03/19 09:24:03;;;;;;;14.23;4.95;;;;;;;14.15;66.68;101108.63;3610453;39;20342;-69
2023/03/19 09:26:28;;;;;;;12.25;4.40;;;;;;;14.57;66.68;101111.88;3608377;39;20075;-69
2023/03/19 09:28:55;;;;;;;12.68;4.45;;;;;;;14.91;66.00;101107.53;3609613;39;20058;-69
2023/03/19 09:31:20;;;;;;;15.07;4.30;;;;;;;15.35;64.43;101121.34;3607450;39;20053;-70
2023/03/19 09:33:46;;;;;;;14.20;4.88;;;;;;;15.76;62.48;101121.75;3606362;39;20366;-68
2023/03/19 09:36:12;;;;;;;9.02;3.88;;;;;;;16.06;61.54;101120.28;3609381;39;20055;-69
2023/03/19 09:38:38;;;;;;;9.73;4.47;;;;;;;16.41;60.98;101128.25;3609406;39;20058;-70
2023/03/19 09:41:25;;;;;;;12.18;4.25;;;;;;;16.65;59.24;101119.06;3609885;39;20183;-70
2023/03/19 09:44:03;;;;;;;10.88;4.22;;;;;;;16.90;59.12;101132.41;3608266;39;20058;-70
2023/03/19 09:46:53;;;;;;;9.98;3.85;;;;;;;17.18;56.64;101127.34;3609788;39;20478;-69
2023/03/19 09:49:27;;;;;;;11.10;4.00;;;;;;;17.28;57.29;101130.97;3611489;39;20057;-69
2023/03/19 09:52:02;;;;;;;11.90;4.43;;;;;;;17.31;56.36;101122.56;3609366;39;20171;-69
2023/03/19 09:54:34;;;;;;;10.55;3.97;;;;;;;17.42;56.79;101134.41;3611974;39;20058;-70
2023/03/19 09:57:00;;;;;;;9.07;4.15;;;;;;;17.61;56.88;101134.53;3612689;39;20059;-69
2023/03/19 09:59:28;;;;;;;8.65;3.45;;;;;;;17.80;55.26;101140.13;3611466;39;21664;-70
2023/03/19 10:02:43;;;;;;;11.63;4.00;;;;;;;17.89;56.17;101133.03;3610979;39;20087;-69
2023/03/19 10:05:24;;;;;;;9.65;3.38;;;;;;;17.98;54.39;101134.06;3608579;39;20127;-69
2023/03/19 10:08:38;;;;;;;9.57;3.60;;;;;;;18.09;54.34;101139.41;3610877;39;20058;-69
2023/03/19 10:12:00;;;;;;;9.35;3.47;;;;;;;18.12;54.31;101120.09;3611481;39;20059;-69
2023/03/19 10:14:49;;;;;;;11.50;3.97;;;;;;;18.48;55.04;101140.44;3589909;39;20063;-70
2023/03/19 10:17:27;;;;;;;10.40;4.07;;;;;;;18.68;53.08;101141.34;3606677;39;20055;-70
2023/03/19 10:20:09;;;;;;;7.55;3.40;;;;;;;18.90;52.40;101139.41;3607334;39;20104;-70
2023/03/19 10:22:50;;;;;;;8.20;3.50;;;;;;;18.75;51.09;101142.53;3607927;39;20048;-70
2023/03/19 10:25:26;;;;;;;11.95;4.30;;;;;;;18.67;52.96;101142.34;3606899;39;20051;-70
2023/03/19 10:28:13;;;;;;;8.30;3.90;;;;;;;18.67;53.28;101142.34;3609091;39;20050;-70
2023/03/19 10:30:40;;;;;;;9.85;3.75;;;;;;;18.88;52.49;101144.16;3608859;39;20044;-70
2023/03/19 10:33:53;;;;;;;9.25;3.25;;;;;;;18.50;52.10;101143.03;3598121;39;20057;-69
2023/03/19 10:36:29;;;;;;;11.85;3.83;;;;;;;18.39;51.42;101145.84;3581995;39;20327;-69
2023/03/19 10:38:55;;;;;;;8.50;3.72;;;;;;;18.04;52.45;101149.84;3609880;39;20035;-69
2023/03/19 10:41:48;;;;;;;13.75;5.30;;;;;;;17.80;53.63;101142.00;3608378;39;20039;-69
2023/03/19 10:44:29;;;;;;;11.82;4.43;;;;;;;17.60;54.23;101143.66;3607852;39;20082;-69
2023/03/19 10:47:13;;;;;;;15.77;10.35;;;;;;;17.95;55.47;101147.91;3607332;39;20051;-70
2023/03/19 10:49:40;;;;;;;9.93;3.55;;;;;;;17.94;52.50;101149.78;3608658;39;20055;-69
2023/03/19 10:52:30;;;;;;;10.30;3.40;;;;;;;17.64;53.76;101156.88;3609353;39;20470;-69
2023/03/19 10:55:11;;;;;;;12.45;3.60;;;;;;;17.46;53.64;101158.47;3608684;39;20039;-69
2023/03/19 10:57:42;;;;;;;10.82;3.50;;;;;;;17.12;54.99;101136.84;3611105;39;20067;-69
2023/03/19 11:00:23;;;;;;;7.75;3.22;;;;;;;17.03;55.38;101161.22;3608904;39;20042;-69
2023/03/19 11:02:55;;;;;;;7.70;2.95;;;;;;;16.88;55.29;101153.38;3609946;39;20050;-69
2023/03/19 11:05:20;;;;;;;9.52;3.05;;;;;;;17.14;55.91;101158.47;3610603;39;20065;-68
2023/03/19 11:07:54;;;;;;;9.25;3.00;;;;;;;17.66;55.11;101162.16;3611201;39;20047;-69
2023/03/19 11:10:24;;;;;;;9.07;2.90;;;;;;;18.26;52.36;101165.97;3607922;39;20043;-69
2023/03/19 11:12:59;;;;;;;7.10;2.10;;;;;;;18.90;51.34;101161.19;3612514;39;20067;-69
2023/03/19 11:15:37;;;;;;;8.77;2.65;;;;;;;19.58;49.95;101162.09;3599801;39;20043;-71
2023/03/19 11:18:22;;;;;;;7.57;2.75;;;;;;;19.70;50.87;101160.97;3611053;39;20070;-69
2023/03/19 11:21:05;;;;;;;9.07;3.30;;;;;;;19.15;49.66;101132.53;3609687;39;20097;-69
2023/03/19 11:23:40;;;;;;;8.13;3.22;;;;;;;18.86;50.79;101170.66;3601728;39;20095;-69
2023/03/19 11:26:06;;;;;;;6.47;3.58;;;;;;;18.48;52.25;101172.25;3610023;39;20054;-69
2023/03/19 11:28:36;;;;;;;8.13;3.80;;;;;;;18.01;52.69;101169.16;3610066;39;20060;-69